Time;durP1;ratioP1;P1;durP2;ratioP2;P2;SDS_P1;SDS_P2;PMS_P1;PMS_P2;Temp;Humidity;BMP_temperature;BMP_pressure;BME280_temperature;BME280_humidity;BME280_pressure;Samples;Min_cycle;Max_cycle;Signal;HPM_P1;HPM_P2
2022/07/22 00:01:15;;;;;;;18.33;15.88;;;19.40;99.90;;;;;;5091172;28;20031;-59
2022/07/22 00:03:40;;;;;;;18.13;16.33;;;19.40;99.90;;;;;;5095505;28;20093;-58
2022/07/22 00:06:06;;;;;;;19.02;16.40;;;19.40;99.90;;;;;;5079018;28;20383;-60
2022/07/22 00:08:32;;;;;;;17.52;15.73;;;19.30;99.90;;;;;;5098295;28;20067;-57
2022/07/22 00:10:57;;;;;;;22.80;16.50;;;19.20;99.90;;;;;;5088659;28;20533;-59
2022/07/22 00:13:23;;;;;;;19.38;15.88;;;19.10;99.90;;;;;;5065213;28;20024;-59
2022/07/22 00:15:49;;;;;;;20.52;16.08;;;19.00;99.90;;;;;;5082645;28;20444;-58
2022/07/22 00:18:14;;;;;;;17.33;14.15;;;18.90;99.90;;;;;;5087948;28;20054;-59
2022/07/22 00:20:40;;;;;;;20.20;13.55;;;18.80;99.90;;;;;;5072556;28;20760;-62
2022/07/22 00:23:05;;;;;;;17.15;13.60;;;18.70;99.90;;;;;;5090111;28;20028;-60
2022/07/22 00:25:31;;;;;;;15.52;11.20;;;18.50;99.90;;;;;;5087544;28;20104;-62
2022/07/22 00:27:57;;;;;;;21.02;10.50;;;18.40;99.90;;;;;;5089648;28;20012;-58
2022/07/22 00:30:22;;;;;;;16.30;10.10;;;18.30;99.90;;;;;;5085619;28;20097;-59
2022/07/22 00:32:48;;;;;;;9.77;8.43;;;18.20;99.90;;;;;;5089299;28;21447;-61
2022/07/22 00:35:13;;;;;;;15.88;8.30;;;18.20;99.90;;;;;;5089469;28;20066;-60
2022/07/22 00:37:39;;;;;;;10.05;7.45;;;18.10;99.90;;;;;;5087934;28;20050;-60
2022/07/22 00:40:05;;;;;;;10.93;7.32;;;18.20;99.90;;;;;;5071317;28;20454;-60
2022/07/22 00:42:31;;;;;;;8.65;7.55;;;18.20;99.90;;;;;;5089723;28;20076;-60
2022/07/22 00:44:57;;;;;;;10.65;6.68;;;18.20;99.90;;;;;;5088956;28;20110;-60
2022/07/22 00:47:23;;;;;;;8.13;5.45;;;18.30;99.90;;;;;;5085093;28;20025;-60
2022/07/22 00:49:49;;;;;;;6.47;4.65;;;18.30;99.90;;;;;;5086111;28;20028;-60
2022/07/22 00:52:15;;;;;;;6.03;4.20;;;18.20;99.90;;;;;;5083252;28;20674;-58
2022/07/22 00:54:41;;;;;;;3.92;3.30;;;18.20;99.90;;;;;;5082058;28;20023;-59
2022/07/22 00:57:06;;;;;;;3.85;3.00;;;18.10;99.90;;;;;;5086007;28;20032;-58
2022/07/22 00:59:32;;;;;;;4.70;2.40;;;18.10;99.90;;;;;;5057195;28;20102;-60
2022/07/22 01:01:58;;;;;;;2.38;1.60;;;18.00;99.90;;;;;;5077808;28;20032;-62
2022/07/22 01:04:24;;;;;;;1.88;1.60;;;18.00;99.90;;;;;;5088022;28;20410;-64
2022/07/22 01:09:20;;;;;;;4.13;1.13;;;17.80;99.90;;;;;;5086269;28;20059;-54
2022/07/22 01:11:46;;;;;;;3.17;1.60;;;17.70;99.90;;;;;;5088555;28;20012;-57
2022/07/22 01:14:12;;;;;;;3.65;1.75;;;17.50;99.90;;;;;;5087364;28;20028;-56
2022/07/22 01:16:38;;;;;;;4.57;1.73;;;17.20;99.90;;;;;;5089576;28;20382;-53
2022/07/22 01:19:04;;;;;;;5.20;2.47;;;17.00;99.90;;;;;;5068179;28;20094;-57
2022/07/22 01:21:30;;;;;;;3.50;1.95;;;16.80;99.90;;;;;;5068200;28;20029;-56
2022/07/22 01:23:55;;;;;;;4.10;2.75;;;16.70;99.90;;;;;;5057787;28;20132;-56
2022/07/22 01:26:21;;;;;;;2.38;1.50;;;16.60;99.90;;;;;;5062899;28;20036;-51
2022/07/22 01:28:46;;;;;;;2.97;2.05;;;16.60;99.90;;;;;;5045638;28;20504;-56
2022/07/22 01:31:12;;;;;;;3.20;2.22;;;16.40;99.90;;;;;;5067973;28;20048;-53
2022/07/22 01:33:38;;;;;;;2.92;1.52;;;16.40;99.90;;;;;;5065743;28;20034;-53
2022/07/22 01:36:04;;;;;;;2.92;2.08;;;16.40;99.90;;;;;;5067352;28;20071;-51
2022/07/22 01:38:30;;;;;;;5.43;2.10;;;16.30;99.90;;;;;;5063301;28;20031;-54
2022/07/22 01:40:56;;;;;;;3.05;1.90;;;16.30;99.90;;;;;;5068068;28;20029;-51
2022/07/22 01:43:22;;;;;;;2.45;1.75;;;16.20;99.90;;;;;;5068815;28;20538;-52
2022/07/22 01:45:50;;;;;;;3.63;1.75;;;16.20;99.90;;;;;;5063514;28;20478;-51
2022/07/22 01:48:16;;;;;;;3.33;1.70;;;16.20;99.90;;;;;;5059528;28;20021;-52
2022/07/22 01:50:42;;;;;;;1.80;1.35;;;16.20;99.90;;;;;;5068110;28;20024;-52
2022/07/22 01:53:08;;;;;;;4.15;1.77;;;16.20;99.90;;;;;;5042448;28;20119;-50
2022/07/22 01:55:34;;;;;;;3.60;2.08;;;16.20;99.90;;;;;;5068473;28;20146;-54
2022/07/22 01:57:59;;;;;;;2.72;2.28;;;16.20;99.90;;;;;;5064929;28;20475;-54
2022/07/22 02:00:25;;;;;;;5.55;2.22;;;16.20;99.90;;;;;;5062282;28;20402;-51
2022/07/22 02:02:51;;;;;;;4.25;2.65;;;16.20;99.90;;;;;;5068287;28;20040;-51
2022/07/22 02:05:17;;;;;;;4.65;2.72;;;16.10;99.90;;;;;;5045778;28;20082;-53
2022/07/22 02:07:43;;;;;;;4.40;2.83;;;16.10;99.90;;;;;;5063666;28;20115;-56
2022/07/22 02:10:09;;;;;;;5.15;2.85;;;16.20;99.90;;;;;;5058129;28;20194;-49
2022/07/22 02:12:35;;;;;;;7.40;3.22;;;16.20;99.90;;;;;;5062914;28;20016;-50
2022/07/22 02:15:00;;;;;;;7.18;3.65;;;16.20;99.90;;;;;;5057590;28;20029;-48
2022/07/22 02:17:27;;;;;;;8.18;4.20;;;16.30;99.90;;;;;;5072569;28;20020;-51
2022/07/22 02:19:53;;;;;;;9.07;4.68;;;16.20;99.90;;;;;;5053786;28;20505;-55
2022/07/22 02:22:19;;;;;;;8.50;4.20;;;16.20;99.90;;;;;;5051310;28;20108;-51
2022/07/22 02:24:44;;;;;;;5.20;4.38;;;16.20;99.90;;;;;;5072471;28;20025;-53
2022/07/22 02:27:11;;;;;;;9.52;4.95;;;16.20;99.90;;;;;;5066037;28;20473;-52
2022/07/22 02:29:36;;;;;;;7.43;4.55;;;16.10;99.90;;;;;;5072186;28;20016;-54
2022/07/22 02:32:02;;;;;;;9.15;4.68;;;16.10;99.90;;;;;;5070528;28;20031;-56
2022/07/22 02:34:28;;;;;;;6.63;5.45;;;16.10;99.90;;;;;;5069533;28;20020;-59
2022/07/22 02:36:53;;;;;;;7.72;4.80;;;16.20;99.90;;;;;;5071538;28;20035;-54
2022/07/22 02:39:19;;;;;;;6.57;3.90;;;16.10;99.90;;;;;;5067362;28;20024;-55
2022/07/22 02:41:44;;;;;;;6.90;3.90;;;16.10;99.90;;;;;;5072064;28;20028;-55
2022/07/22 02:44:10;;;;;;;6.75;4.07;;;16.10;99.90;;;;;;5072436;28;20028;-55
2022/07/22 02:46:36;;;;;;;5.65;3.17;;;16.10;99.90;;;;;;5070579;28;20082;-54
2022/07/22 02:49:02;;;;;;;5.35;3.47;;;16.10;99.90;;;;;;5052484;28;20254;-57
2022/07/22 02:51:27;;;;;;;5.05;4.18;;;16.10;99.90;;;;;;5067132;28;20423;-57
2022/07/22 02:53:53;;;;;;;6.72;3.47;;;16.10;99.90;;;;;;5071494;28;20023;-56
2022/07/22 02:56:19;;;;;;;7.03;3.50;;;16.10;99.90;;;;;;5065287;28;20387;-57
2022/07/22 02:58:46;;;;;;;8.02;3.58;;;16.10;99.90;;;;;;5046895;28;20031;-58
2022/07/22 03:01:12;;;;;;;5.30;3.50;;;16.10;99.90;;;;;;5071509;28;20016;-56
2022/07/22 03:03:38;;;;;;;5.47;3.20;;;16.00;99.90;;;;;;5071605;28;20576;-54
2022/07/22 03:06:03;;;;;;;4.22;2.05;;;16.00;99.90;;;;;;5069874;28;20032;-57
2022/07/22 03:08:29;;;;;;;6.07;2.53;;;16.00;99.90;;;;;;5068784;28;20063;-58
2022/07/22 03:10:56;;;;;;;7.57;3.00;;;15.90;99.90;;;;;;5052680;28;20498;-53
2022/07/22 03:13:21;;;;;;;7.85;2.80;;;15.90;99.90;;;;;;5065322;28;20056;-54
2022/07/22 03:15:47;;;;;;;5.22;3.20;;;15.90;99.90;;;;;;5070938;28;20056;-55
2022/07/22 03:18:12;;;;;;;6.53;3.03;;;15.90;99.90;;;;;;5061478;28;20107;-58
2022/07/22 03:20:38;;;;;;;7.63;2.78;;;15.90;99.90;;;;;;5061283;28;20025;-57
2022/07/22 03:23:04;;;;;;;5.68;2.25;;;15.90;99.90;;;;;;5067789;28;20070;-58
2022/07/22 03:25:31;;;;;;;7.53;3.47;;;15.90;99.90;;;;;;5071459;28;20013;-54
2022/07/22 03:27:56;;;;;;;8.85;2.55;;;15.90;99.90;;;;;;5066298;28;20017;-58
2022/07/22 03:30:22;;;;;;;5.05;2.50;;;15.90;99.90;;;;;;5071089;28;20031;-58
2022/07/22 03:32:47;;;;;;;8.43;2.63;;;15.90;99.90;;;;;;5067594;28;20049;-58
2022/07/22 03:35:15;;;;;;;3.67;2.03;;;15.90;99.90;;;;;;5067877;28;20037;-55
2022/07/22 03:37:41;;;;;;;7.40;1.90;;;15.90;99.90;;;;;;5061481;28;20479;-58
2022/07/22 03:40:07;;;;;;;6.03;2.45;;;15.90;99.90;;;;;;5070879;28;20059;-54
2022/07/22 03:42:33;;;;;;;4.93;2.63;;;15.90;99.90;;;;;;5070368;28;20020;-48
2022/07/22 03:44:58;;;;;;;4.82;2.78;;;15.90;99.90;;;;;;5070601;28;20081;-55
2022/07/22 03:47:24;;;;;;;4.78;2.00;;;15.90;99.90;;;;;;5069703;28;20172;-54
2022/07/22 03:49:51;;;;;;;2.35;1.88;;;15.80;99.90;;;;;;5069010;28;20072;-54
2022/07/22 03:52:17;;;;;;;4.63;2.13;;;15.80;99.90;;;;;;5048329;28;20021;-51
2022/07/22 03:54:43;;;;;;;4.35;2.35;;;15.80;99.90;;;;;;5059753;28;20070;-54
2022/07/22 03:57:09;;;;;;;5.55;2.20;;;15.90;99.90;;;;;;5049921;28;20037;-54
2022/07/22 03:59:35;;;;;;;3.55;1.90;;;15.80;99.90;;;;;;5069852;28;20446;-51
2022/07/22 04:02:02;;;;;;;6.70;2.47;;;15.80;99.90;;;;;;5068854;28;20029;-59
2022/07/22 04:04:27;;;;;;;6.38;2.00;;;15.80;99.90;;;;;;5070239;28;20094;-50
2022/07/22 04:06:53;;;;;;;4.80;2.25;;;15.80;99.90;;;;;;5070160;28;20036;-50
2022/07/22 04:09:19;;;;;;;2.97;1.52;;;15.80;99.90;;;;;;5066181;28;20044;-53
2022/07/22 04:11:45;;;;;;;3.20;1.90;;;15.80;99.90;;;;;;5066504;28;20032;-51
2022/07/22 04:14:10;;;;;;;5.38;2.03;;;15.70;99.90;;;;;;5069418;28;20020;-54
2022/07/22 04:16:36;;;;;;;4.35;1.98;;;15.80;99.90;;;;;;5070675;28;20052;-49
2022/07/22 04:19:03;;;;;;;5.60;1.92;;;15.70;99.90;;;;;;5068418;28;20033;-50
2022/07/22 04:21:29;;;;;;;4.78;1.73;;;15.70;99.90;;;;;;5064012;28;20039;-53
2022/07/22 04:23:55;;;;;;;8.10;2.63;;;15.80;99.90;;;;;;5059807;28;20037;-48
2022/07/22 04:26:20;;;;;;;2.90;2.20;;;15.80;99.90;;;;;;5070093;28;20032;-53
2022/07/22 04:28:46;;;;;;;4.45;2.55;;;15.80;99.90;;;;;;5059052;28;20407;-52
2022/07/22 04:31:12;;;;;;;5.70;2.20;;;15.80;99.90;;;;;;5069218;28;20166;-52
2022/07/22 04:33:37;;;;;;;7.90;2.25;;;15.80;99.90;;;;;;5061186;28;20028;-52
2022/07/22 04:36:04;;;;;;;7.70;2.10;;;15.80;99.90;;;;;;5061097;28;20483;-54
2022/07/22 04:38:29;;;;;;;6.38;3.15;;;15.80;99.90;;;;;;5064092;28;20112;-52
2022/07/22 04:40:56;;;;;;;4.97;2.10;;;15.90;99.90;;;;;;5059918;28;20111;-49
2022/07/22 04:43:21;;;;;;;6.47;2.17;;;15.90;99.90;;;;;;5063099;28;20033;-52
2022/07/22 04:45:47;;;;;;;5.75;2.70;;;15.90;99.90;;;;;;5069730;28;20663;-51
2022/07/22 04:48:13;;;;;;;5.47;3.22;;;15.90;99.90;;;;;;5067472;28;20590;-50
2022/07/22 04:50:38;;;;;;;7.63;2.78;;;15.90;99.90;;;;;;5066255;28;20103;-53
2022/07/22 04:53:04;;;;;;;5.45;2.00;;;15.90;99.90;;;;;;5068956;28;20025;-53
2022/07/22 04:55:30;;;;;;;7.78;3.35;;;15.90;99.90;;;;;;5051563;28;20032;-51
2022/07/22 04:57:56;;;;;;;4.57;2.25;;;15.90;99.90;;;;;;5058850;28;20017;-52
2022/07/22 05:00:22;;;;;;;6.35;2.10;;;15.90;99.90;;;;;;5069456;28;20024;-54
2022/07/22 05:02:48;;;;;;;4.85;2.33;;;15.90;99.90;;;;;;5065038;28;20561;-52
2022/07/22 05:05:13;;;;;;;3.38;2.40;;;15.90;99.90;;;;;;5068111;28;20032;-53
2022/07/22 05:07:39;;;;;;;4.13;2.25;;;15.90;99.90;;;;;;5064578;28;20031;-52
2022/07/22 05:10:05;;;;;;;3.35;2.47;;;15.80;99.90;;;;;;5068603;28;20032;-50
2022/07/22 05:12:31;;;;;;;5.35;2.50;;;15.80;99.90;;;;;;5068755;28;20044;-52
2022/07/22 05:14:56;;;;;;;3.35;1.90;;;15.80;99.90;;;;;;5067905;28;20420;-51
2022/07/22 05:17:22;;;;;;;3.72;2.53;;;15.90;99.90;;;;;;5069634;28;20481;-52
2022/07/22 05:19:48;;;;;;;3.58;2.50;;;15.90;99.90;;;;;;5069308;28;20029;-51
2022/07/22 05:22:13;;;;;;;6.80;2.97;;;15.90;99.90;;;;;;5060281;28;20078;-50
2022/07/22 05:24:39;;;;;;;4.93;3.28;;;15.90;99.90;;;;;;5068910;28;20478;-52
2022/07/22 05:27:04;;;;;;;7.97;2.92;;;15.80;99.90;;;;;;5061764;28;20411;-49
2022/07/22 05:29:30;;;;;;;10.90;3.42;;;15.80;99.90;;;;;;5058804;28;20016;-53
2022/07/22 05:31:56;;;;;;;6.10;3.10;;;15.80;99.90;;;;;;5066202;28;20424;-50
2022/07/22 05:34:21;;;;;;;4.85;2.97;;;15.80;99.90;;;;;;5056967;28;20025;-50
2022/07/22 05:36:47;;;;;;;10.23;3.40;;;15.80;99.90;;;;;;5060678;28;20024;-51
2022/07/22 05:39:13;;;;;;;10.20;3.08;;;15.80;99.90;;;;;;5060719;28;20037;-50
2022/07/22 05:41:38;;;;;;;10.77;2.97;;;15.80;99.90;;;;;;5068233;28;20067;-50
2022/07/22 05:44:04;;;;;;;7.15;3.05;;;15.80;99.90;;;;;;5066787;28;20372;-52
2022/07/22 05:46:30;;;;;;;11.23;3.75;;;15.80;99.90;;;;;;5058229;28;20036;-52
2022/07/22 05:48:56;;;;;;;9.45;3.20;;;15.80;99.90;;;;;;5044890;28;20047;-53
2022/07/22 05:51:21;;;;;;;7.18;3.00;;;15.80;99.90;;;;;;5049252;28;20475;-50
2022/07/22 05:53:48;;;;;;;9.23;3.05;;;15.90;99.90;;;;;;5066876;28;20029;-50
2022/07/22 05:56:13;;;;;;;4.65;2.83;;;15.90;99.90;;;;;;5068943;28;20029;-51
2022/07/22 05:58:40;;;;;;;7.38;3.30;;;15.90;99.90;;;;;;5068130;28;20074;-51
2022/07/22 06:01:06;;;;;;;5.43;2.95;;;16.00;99.90;;;;;;5066490;28;20047;-50
2022/07/22 06:03:32;;;;;;;9.77;3.08;;;16.00;99.90;;;;;;5067196;28;20539;-53
2022/07/22 06:05:58;;;;;;;8.30;3.42;;;16.00;99.90;;;;;;5068424;28;20071;-50
2022/07/22 06:08:24;;;;;;;10.00;3.13;;;16.00;99.90;;;;;;5068318;28;20162;-51
2022/07/22 06:10:49;;;;;;;7.15;3.03;;;16.10;99.90;;;;;;5068478;28;20099;-51
2022/07/22 06:13:15;;;;;;;6.60;3.03;;;16.10;99.90;;;;;;5063962;28;20028;-50
2022/07/22 06:15:41;;;;;;;7.30;3.15;;;16.20;99.90;;;;;;5060332;28;20028;-50
2022/07/22 06:18:06;;;;;;;6.70;2.75;;;16.30;99.90;;;;;;5047737;28;20025;-53
2022/07/22 06:20:32;;;;;;;9.25;3.05;;;16.30;99.90;;;;;;5057403;28;20029;-50
2022/07/22 06:22:57;;;;;;;9.93;2.70;;;16.30;99.90;;;;;;5067692;28;20032;-49
2022/07/22 06:25:23;;;;;;;8.23;2.92;;;16.40;99.90;;;;;;5050617;28;20028;-52
2022/07/22 06:27:49;;;;;;;6.50;2.90;;;16.40;99.90;;;;;;5068200;28;20021;-50
2022/07/22 06:30:14;;;;;;;7.40;3.17;;;16.40;99.90;;;;;;5066612;28;20560;-52
2022/07/22 06:32:40;;;;;;;5.45;2.85;;;16.40;99.90;;;;;;5063059;28;20021;-51
2022/07/22 06:35:06;;;;;;;8.73;3.60;;;16.40;99.90;;;;;;5057889;28;20075;-49
2022/07/22 06:37:31;;;;;;;7.20;3.25;;;16.50;99.90;;;;;;5057955;28;20052;-50
2022/07/22 06:39:57;;;;;;;6.60;3.05;;;16.50;99.90;;;;;;5063609;28;20056;-50
2022/07/22 06:42:22;;;;;;;9.80;3.15;;;16.60;99.90;;;;;;5056352;28;20135;-55
2022/07/22 06:44:48;;;;;;;14.00;3.88;;;16.60;99.90;;;;;;5062568;28;20028;-50
2022/07/22 06:47:14;;;;;;;5.55;2.88;;;16.60;99.90;;;;;;5046863;28;20041;-51
2022/07/22 06:49:40;;;;;;;10.00;3.85;;;16.70;99.90;;;;;;5058261;28;20028;-49
2022/07/22 06:52:06;;;;;;;9.15;3.05;;;16.70;99.90;;;;;;5065910;28;20107;-52
2022/07/22 06:54:31;;;;;;;10.75;4.25;;;16.80;99.90;;;;;;5061499;28;20017;-52
2022/07/22 06:56:57;;;;;;;13.60;3.47;;;16.80;99.90;;;;;;5064971;28;20549;-51
2022/07/22 06:59:24;;;;;;;3.08;2.75;;;16.90;99.90;;;;;;5067695;28;20040;-51
2022/07/22 07:01:49;;;;;;;9.77;3.17;;;16.90;99.90;;;;;;5065603;28;20427;-54
2022/07/22 07:04:16;;;;;;;6.88;2.90;;;17.10;99.90;;;;;;5070427;28;20024;-49
2022/07/22 07:06:42;;;;;;;9.80;3.88;;;17.20;99.90;;;;;;5066771;28;20021;-48
2022/07/22 07:09:07;;;;;;;8.38;3.30;;;17.30;99.90;;;;;;5099425;22;20180;-58
2022/07/22 07:11:34;;;;;;;6.78;3.10;;;17.30;99.90;;;;;;5085073;28;20028;-58
2022/07/22 07:14:00;;;;;;;8.18;3.25;;;17.20;99.90;;;;;;5088724;28;20015;-57
2022/07/22 07:16:26;;;;;;;9.20;3.00;;;17.20;99.90;;;;;;5091287;28;20386;-56
2022/07/22 07:18:51;;;;;;;8.60;3.42;;;17.10;99.90;;;;;;5091602;28;20032;-59
2022/07/22 07:21:17;;;;;;;5.72;2.67;;;17.00;99.90;;;;;;5081634;28;20036;-57
2022/07/22 07:23:43;;;;;;;8.55;3.15;;;17.10;99.90;;;;;;5087563;28;20028;-58
2022/07/22 07:26:08;;;;;;;10.77;2.67;;;17.00;99.90;;;;;;5084407;28;20036;-59
2022/07/22 07:28:34;;;;;;;6.63;3.30;;;17.00;99.90;;;;;;5087413;28;20020;-55
2022/07/22 07:30:59;;;;;;;11.63;2.70;;;17.00;99.90;;;;;;5090093;28;20020;-59
2022/07/22 07:33:25;;;;;;;7.32;3.67;;;17.00;99.90;;;;;;5080544;28;20016;-53
2022/07/22 07:35:51;;;;;;;7.40;2.45;;;17.00;99.90;;;;;;5062027;28;20442;-59
2022/07/22 07:38:16;;;;;;;7.50;2.63;;;17.00;99.90;;;;;;5081372;28;20040;-58
2022/07/22 07:40:42;;;;;;;11.02;3.15;;;17.00;99.90;;;;;;5084194;28;20091;-56
2022/07/22 07:43:08;;;;;;;8.55;2.75;;;16.90;99.90;;;;;;5087240;28;20421;-57
2022/07/22 07:45:34;;;;;;;7.05;2.90;;;17.00;99.90;;;;;;5085902;28;20028;-57
2022/07/22 07:48:00;;;;;;;9.40;2.83;;;17.00;99.90;;;;;;5082576;28;20028;-51
2022/07/22 07:50:26;;;;;;;7.65;2.72;;;17.00;99.90;;;;;;5091455;28;20016;-57
2022/07/22 07:52:52;;;;;;;3.95;2.33;;;17.10;99.90;;;;;;5061803;28;20115;-54
2022/07/22 07:55:18;;;;;;;13.68;3.17;;;17.10;99.90;;;;;;5070738;28;20095;-59
2022/07/22 07:57:48;;;;;;;8.18;3.10;;;17.20;99.90;;;;;;5063425;28;20079;-56
2022/07/22 08:00:15;;;;;;;9.32;3.08;;;17.30;99.90;;;;;;5090261;28;20074;-57
2022/07/22 08:02:40;;;;;;;5.78;2.80;;;17.30;99.90;;;;;;5089356;28;20028;-55
2022/07/22 08:05:08;;;;;;;15.63;3.30;;;17.40;99.90;;;;;;5088964;28;20028;-56
2022/07/22 08:07:34;;;;;;;10.43;2.40;;;17.50;99.90;;;;;;5085882;28;20089;-54
2022/07/22 08:10:00;;;;;;;5.22;2.33;;;17.50;99.90;;;;;;5087998;28;20111;-55
2022/07/22 08:12:25;;;;;;;10.30;2.67;;;17.50;99.90;;;;;;5084126;28;20146;-53
2022/07/22 08:14:51;;;;;;;6.05;2.75;;;17.60;99.90;;;;;;5086725;28;20526;-51
2022/07/22 08:17:17;;;;;;;8.15;2.83;;;17.50;99.90;;;;;;5090498;28;20020;-54
2022/07/22 08:19:43;;;;;;;8.32;2.05;;;17.60;99.90;;;;;;5090113;28;20115;-59
2022/07/22 08:22:08;;;;;;;5.82;2.05;;;17.60;99.90;;;;;;5081977;28;20036;-56
2022/07/22 08:24:34;;;;;;;6.93;2.58;;;17.60;99.90;;;;;;5063615;28;20031;-57
2022/07/22 08:26:59;;;;;;;5.03;2.22;;;17.60;99.90;;;;;;5083965;28;20028;-58
2022/07/22 08:29:25;;;;;;;9.27;2.03;;;17.60;99.90;;;;;;5089081;28;20027;-56
2022/07/22 08:31:51;;;;;;;4.03;1.65;;;17.70;99.90;;;;;;5089838;28;20400;-56
2022/07/22 08:34:17;;;;;;;7.20;2.47;;;17.70;99.90;;;;;;5084262;28;20146;-56
2022/07/22 08:36:42;;;;;;;7.85;2.10;;;17.90;99.90;;;;;;5075469;28;20056;-55
2022/07/22 08:39:08;;;;;;;5.40;2.40;;;17.80;99.90;;;;;;5062644;28;20039;-55
2022/07/22 08:41:37;;;;;;;6.47;2.13;;;18.00;99.90;;;;;;5089481;28;20024;-55
2022/07/22 08:44:04;;;;;;;9.38;1.95;;;17.90;99.90;;;;;;5088238;28;20054;-55
2022/07/22 08:46:30;;;;;;;5.57;1.77;;;18.10;99.90;;;;;;5088784;28;20099;-52
2022/07/22 08:48:56;;;;;;;5.60;2.25;;;18.10;99.90;;;;;;5062960;28;20106;-54
2022/07/22 08:51:22;;;;;;;8.07;2.03;;;18.00;99.90;;;;;;5087106;28;20020;-53
2022/07/22 08:53:47;;;;;;;6.22;2.33;;;18.10;99.90;;;;;;5063330;28;20073;-53
2022/07/22 08:56:14;;;;;;;11.43;2.28;;;18.00;99.90;;;;;;5080475;28;20107;-57
2022/07/22 08:58:40;;;;;;;7.38;2.33;;;17.90;99.90;;;;;;5089426;28;20024;-55
2022/07/22 09:01:09;;;;;;;5.43;2.08;;;17.90;99.90;;;;;;5067036;28;20072;-58
2022/07/22 09:03:53;;;;;;;4.80;2.33;;;17.90;99.90;;;;;;5065544;28;20031;-53
2022/07/22 09:06:20;;;;;;;8.68;1.67;;;18.00;99.90;;;;;;5085477;28;20097;-54
2022/07/22 09:09:00;;;;;;;7.22;1.73;;;18.10;99.90;;;;;;5086970;28;20062;-58
2022/07/22 09:11:30;;;;;;;8.27;2.38;;;18.20;99.90;;;;;;5082220;28;20677;-52
2022/07/22 09:13:58;;;;;;;4.68;2.42;;;18.20;99.90;;;;;;5083040;28;20103;-51
2022/07/22 09:16:42;;;;;;;10.52;2.15;;;18.10;99.90;;;;;;5082908;28;20016;-54
2022/07/22 09:19:08;;;;;;;11.48;2.13;;;18.10;99.90;;;;;;5060764;28;20031;-55
2022/07/22 09:21:38;;;;;;;7.20;2.13;;;18.10;99.90;;;;;;5083834;28;20485;-56
2022/07/22 09:24:05;;;;;;;16.88;2.80;;;18.10;99.90;;;;;;5085384;28;20042;-55
2022/07/22 09:26:36;;;;;;;7.47;1.83;;;18.10;99.90;;;;;;5071261;28;20338;-54
2022/07/22 09:29:03;;;;;;;4.20;1.65;;;18.10;99.90;;;;;;5083593;28;20456;-51
2022/07/22 09:31:37;;;;;;;6.65;1.60;;;18.10;99.90;;;;;;5097051;28;20038;-55
2022/07/22 09:34:03;;;;;;;2.92;1.70;;;18.20;99.90;;;;;;5076554;28;20406;-55
2022/07/22 09:36:30;;;;;;;7.65;1.80;;;18.20;99.90;;;;;;5057459;28;20103;-56
2022/07/22 09:38:55;;;;;;;5.65;2.15;;;18.20;99.90;;;;;;5084548;28;20036;-54
2022/07/22 09:41:21;;;;;;;4.18;1.80;;;18.20;99.90;;;;;;5086326;28;20020;-53
2022/07/22 09:43:48;;;;;;;4.85;2.03;;;18.10;99.90;;;;;;5085011;28;20027;-54
2022/07/22 09:46:13;;;;;;;7.22;1.75;;;18.20;99.90;;;;;;5083619;28;20551;-56
2022/07/22 09:48:40;;;;;;;4.13;1.65;;;18.20;99.90;;;;;;5081325;28;20119;-58
2022/07/22 09:51:06;;;;;;;5.63;1.77;;;18.30;99.90;;;;;;5086679;28;20024;-60
2022/07/22 09:53:33;;;;;;;7.32;2.15;;;18.30;99.90;;;;;;5088798;28;20012;-59
2022/07/22 09:56:02;;;;;;;6.75;1.92;;;18.20;99.90;;;;;;5080924;28;20032;-58
2022/07/22 09:58:28;;;;;;;5.15;1.50;;;18.10;99.90;;;;;;5087403;28;20054;-55
2022/07/22 10:00:58;;;;;;;7.57;1.65;;;18.00;99.90;;;;;;5085842;28;20019;-55
2022/07/22 10:03:28;;;;;;;5.10;1.80;;;18.10;99.90;;;;;;5083373;28;20023;-59
2022/07/22 10:05:54;;;;;;;5.90;1.52;;;18.10;99.90;;;;;;5077536;28;20471;-58
2022/07/22 10:08:20;;;;;;;6.43;2.22;;;18.10;99.90;;;;;;5082671;28;20042;-56
2022/07/22 10:10:46;;;;;;;7.63;1.38;;;18.10;99.90;;;;;;5078352;28;20101;-56
2022/07/22 10:13:12;;;;;;;6.22;1.98;;;18.00;99.90;;;;;;5080729;28;20110;-58
2022/07/22 10:15:38;;;;;;;7.78;2.42;;;18.00;99.90;;;;;;5083460;28;20031;-55
2022/07/22 10:18:07;;;;;;;4.22;1.58;;;18.00;99.90;;;;;;5084779;28;20091;-56
2022/07/22 10:20:33;;;;;;;5.95;1.73;;;18.10;99.90;;;;;;5082819;28;20029;-55
2022/07/22 10:22:59;;;;;;;6.40;1.73;;;18.10;99.90;;;;;;5085477;28;20027;-58
2022/07/22 10:25:30;;;;;;;10.27;1.77;;;18.10;99.90;;;;;;5065503;28;20059;-56
2022/07/22 10:28:02;;;;;;;5.65;1.92;;;18.20;99.90;;;;;;5085649;28;20016;-55
2022/07/22 10:30:36;;;;;;;6.38;1.85;;;18.40;99.90;;;;;;5087448;28;20020;-57
2022/07/22 10:33:17;;;;;;;5.22;1.40;;;18.50;99.90;;;;;;5065553;28;20047;-56
2022/07/22 10:35:43;;;;;;;5.97;1.60;;;18.60;99.90;;;;;;5086628;28;20052;-55
2022/07/22 10:38:11;;;;;;;2.25;1.20;;;18.60;99.90;;;;;;5086468;28;20065;-51
2022/07/22 10:40:49;;;;;;;5.55;1.25;;;18.60;99.90;;;;;;5089474;28;20424;-56
2022/07/22 10:43:17;;;;;;;6.60;1.75;;;18.50;99.90;;;;;;5091516;28;20051;-55
2022/07/22 10:45:48;;;;;;;7.97;3.55;;;18.50;99.90;;;;;;5088179;28;20094;-58
2022/07/22 10:48:43;;;;;;;6.20;1.65;;;18.60;99.90;;;;;;5090469;28;20481;-56
2022/07/22 10:51:15;;;;;;;5.20;1.85;;;18.80;99.90;;;;;;5092498;28;20024;-58
2022/07/22 10:53:41;;;;;;;4.25;2.30;;;18.90;99.90;;;;;;5092471;28;20400;-57
2022/07/22 10:56:14;;;;;;;4.75;2.35;;;19.00;99.90;;;;;;5060553;28;20024;-55
2022/07/22 10:58:46;;;;;;;7.82;2.70;;;19.00;99.90;;;;;;5086617;28;20038;-57
2022/07/22 11:01:14;;;;;;;4.95;1.38;;;19.00;99.90;;;;;;5088832;28;20029;-57
2022/07/22 11:03:41;;;;;;;6.38;1.70;;;19.00;99.90;;;;;;5071768;28;20035;-57
2022/07/22 11:06:30;;;;;;;7.35;1.55;;;19.00;99.90;;;;;;5089810;28;20078;-57
2022/07/22 11:09:02;;;;;;;3.47;1.10;;;19.00;99.90;;;;;;5086967;28;20655;-57
2022/07/22 11:11:32;;;;;;;6.90;1.30;;;19.00;99.90;;;;;;5086432;28;20013;-57
2022/07/22 11:13:58;;;;;;;5.93;1.33;;;19.10;99.90;;;;;;5086259;28;20110;-56
2022/07/22 11:16:26;;;;;;;3.80;1.30;;;19.20;99.90;;;;;;5091402;28;20051;-57
2022/07/22 11:18:57;;;;;;;4.03;1.63;;;19.20;99.90;;;;;;5083536;28;20503;-59
2022/07/22 11:21:27;;;;;;;10.25;1.55;;;19.30;99.90;;;;;;5088609;28;20058;-57
2022/07/22 11:23:55;;;;;;;7.22;1.58;;;19.20;99.90;;;;;;5088339;28;20497;-59
2022/07/22 11:26:44;;;;;;;4.82;1.65;;;19.10;99.90;;;;;;5084118;28;20028;-55
2022/07/22 11:29:16;;;;;;;1.38;1.00;;;19.10;99.90;;;;;;5079345;28;20020;-55
2022/07/22 11:31:42;;;;;;;5.97;1.98;;;19.20;99.90;;;;;;5091687;28;20037;-57
2022/07/22 11:34:13;;;;;;;1.88;1.00;;;19.20;99.90;;;;;;5082890;28;20039;-58
2022/07/22 11:36:42;;;;;;;6.38;1.40;;;19.40;99.90;;;;;;5102027;28;20016;-57
2022/07/22 11:39:09;;;;;;;4.50;1.30;;;19.50;99.90;;;;;;5082559;28;20036;-56
2022/07/22 11:41:36;;;;;;;7.05;1.20;;;19.50;99.90;;;;;;5064599;28;20024;-56
2022/07/22 11:44:02;;;;;;;3.13;1.20;;;19.60;99.90;;;;;;5082223;28;20522;-57
2022/07/22 11:46:28;;;;;;;4.90;1.42;;;19.70;99.90;;;;;;5089602;28;20035;-58
2022/07/22 11:48:56;;;;;;;5.63;1.45;;;19.80;99.90;;;;;;5086913;28;20391;-58
2022/07/22 11:51:28;;;;;;;4.65;1.25;;;19.90;99.90;;;;;;5090703;28;20015;-61
2022/07/22 11:53:54;;;;;;;3.50;1.02;;;20.00;99.90;;;;;;5090540;28;20021;-58
2022/07/22 11:56:19;;;;;;;5.18;1.08;;;20.00;99.90;;;;;;5083037;28;20032;-58
2022/07/22 11:58:49;;;;;;;6.13;1.20;;;20.00;99.90;;;;;;5090197;28;20479;-58
2022/07/22 12:01:16;;;;;;;3.75;1.00;;;20.10;99.90;;;;;;5080970;28;20552;-57
2022/07/22 12:03:46;;;;;;;3.97;1.08;;;20.10;99.90;;;;;;5089244;28;20023;-58
2022/07/22 12:06:16;;;;;;;4.88;0.95;;;20.10;99.90;;;;;;5087976;28;20027;-57
2022/07/22 12:08:44;;;;;;;2.17;1.35;;;20.00;99.90;;;;;;5063553;28;20039;-54
2022/07/22 12:11:11;;;;;;;3.10;1.13;;;20.00;99.90;;;;;;5088150;28;20375;-53
2022/07/22 12:13:45;;;;;;;5.07;1.40;;;20.10;99.90;;;;;;5085093;28;20016;-60
2022/07/22 12:16:22;;;;;;;2.40;1.00;;;20.20;99.90;;;;;;5090008;28;20027;-57
2022/07/22 12:19:06;;;;;;;10.18;1.52;;;20.20;99.90;;;;;;5090444;28;20024;-56
2022/07/22 12:21:34;;;;;;;2.58;1.10;;;20.10;99.90;;;;;;5084717;28;20052;-58
2022/07/22 12:24:04;;;;;;;4.93;1.40;;;20.10;99.90;;;;;;5086623;28;20039;-54
2022/07/22 12:26:41;;;;;;;3.85;1.40;;;20.20;99.90;;;;;;5090552;28;20056;-56
2022/07/22 12:29:17;;;;;;;2.88;1.13;;;20.20;99.90;;;;;;5084923;28;20020;-55
2022/07/22 12:31:47;;;;;;;3.13;0.98;;;20.30;99.90;;;;;;5071932;28;20016;-58
2022/07/22 12:34:14;;;;;;;2.03;1.20;;;20.40;99.90;;;;;;5082730;28;20532;-58
2022/07/22 12:36:44;;;;;;;3.75;0.85;;;20.40;99.90;;;;;;5083343;28;20131;-59
2022/07/22 12:39:15;;;;;;;3.75;0.85;;;20.50;99.70;;;;;;5086493;28;20103;-61
2022/07/22 12:41:50;;;;;;;2.65;1.40;;;20.50;99.20;;;;;;5067169;28;20259;-54
2022/07/22 12:44:17;;;;;;;5.20;2.22;;;20.40;99.80;;;;;;5079013;28;20104;-56
2022/07/22 12:46:52;;;;;;;3.00;1.13;;;20.40;99.90;;;;;;5078533;28;20455;-54